This is the latest recevied weather packets stored in our database for station/object OM3WYM-13. If no packets are shown the sender has not sent any weather packets the latest 10 day(s).
| Time | Temp. | Humidity | Pressure | Rain* | Wind** | Luminosity | Snow |
|---|---|---|---|---|---|---|---|
| 1777549808 | 13.89° C | 26% | 1026.8 hPa | - | - | - | - |
| 1777549208 | 13.33° C | 27% | 1027 hPa | - | - | - | - |
| 1777548608 | 12.22° C | 27% | 1027.2 hPa | - | - | - | - |
| 1777548008 | 11.67° C | 27% | 1027.3 hPa | - | - | - | - |
| 1777547408 | 12.22° C | 27% | 1027.4 hPa | - | - | - | - |
| 1777546808 | 11.67° C | 27% | 1027.5 hPa | - | - | - | - |
| 1777546208 | 11.11° C | 29% | 1027.6 hPa | - | - | - | - |
| 1777545608 | 10° C | 30% | 1027.9 hPa | - | - | - | - |
| 1777545008 | 10.56° C | 30% | 1027.9 hPa | - | - | - | - |
| 1777544408 | 10° C | 31% | 1028 hPa | - | - | - | - |
| 1777543808 | 9.44° C | 32% | 1028.2 hPa | - | - | - | - |
| 1777543208 | 9.44° C | 32% | 1028.2 hPa | - | - | - | - |
| 1777542608 | 9.44° C | 32% | 1028.3 hPa | - | - | - | - |
| 1777542008 | 9.44° C | 32% | 1028.2 hPa | - | - | - | - |
| 1777541408 | 8.89° C | 33% | 1028.4 hPa | - | - | - | - |
| 1777540808 | 8.89° C | 33% | 1028.3 hPa | - | - | - | - |
| 1777540208 | 8.89° C | 34% | 1028.5 hPa | - | - | - | - |
| 1777539608 | 8.33° C | 33% | 1028.6 hPa | - | - | - | - |
| 1777539008 | 7.78° C | 34% | 1028.7 hPa | - | - | - | - |
| 1777538408 | 7.78° C | 34% | 1028.8 hPa | - | - | - | - |
| 1777537808 | 7.78° C | 35% | 1028.9 hPa | - | - | - | - |
| 1777537208 | 7.78° C | 35% | 1029 hPa | - | - | - | - |
| 1777536608 | 7.22° C | 35% | 1029 hPa | - | - | - | - |
| 1777536008 | 7.78° C | 35% | 1029 hPa | - | - | - | - |
| 1777535408 | 7.22° C | 35% | 1029.2 hPa | - | - | - | - |
* Rain since midnight (hover to see other rain measurements)
** Current wind speed in m/s (hover to see current wind gust speed)